createdAt,value
2018-08-19T00:01:58.851Z,97552.28
2018-08-19T00:06:55.276Z,97549.02
2018-08-19T00:11:49.928Z,97550.70
2018-08-19T00:16:44.594Z,97552.83
2018-08-19T00:21:39.315Z,97558.22
2018-08-19T00:26:33.935Z,97560.75
2018-08-19T00:31:28.516Z,97565.11
2018-08-19T00:36:34.454Z,97553.61
2018-08-19T00:41:29.150Z,97555.27
2018-08-19T00:46:30.577Z,97552.27
2018-08-19T00:51:25.183Z,97551.64
2018-08-19T00:56:20.789Z,97560.82
2018-08-19T01:01:31.247Z,97551.64
2018-08-19T01:06:26.070Z,97546.98
2018-08-19T01:11:30.137Z,97540.94
2018-08-19T01:16:25.659Z,97543.44
2018-08-19T01:21:20.393Z,97547.11
2018-08-19T01:26:14.948Z,97551.28
2018-08-19T01:31:09.591Z,97551.61
2018-08-19T01:36:04.234Z,97553.42
2018-08-19T01:40:58.844Z,97545.75
2018-08-19T01:45:53.459Z,97545.52
2018-08-19T01:50:48.040Z,97545.23
2018-08-19T01:55:42.658Z,97548.72
2018-08-19T02:00:37.248Z,97543.89
2018-08-19T02:05:34.845Z,97542.97
2018-08-19T02:10:31.069Z,97549.05
2018-08-19T02:15:27.115Z,97551.03
2018-08-19T02:20:44.253Z,97551.95
2018-08-19T02:25:43.478Z,97557.14
2018-08-19T02:30:49.994Z,97555.55
2018-08-19T02:35:50.293Z,97551.02
2018-08-19T02:40:44.979Z,97555.33
2018-08-19T02:45:39.623Z,97545.52
2018-08-19T02:50:34.267Z,97540.09
2018-08-19T02:55:29.017Z,97537.20
2018-08-19T03:00:23.716Z,97536.36
2018-08-19T03:05:18.380Z,97535.50
2018-08-19T03:10:16.235Z,97524.81
2018-08-19T03:15:13.156Z,97530.75
2018-08-19T03:20:10.674Z,97530.58
2018-08-19T03:25:05.738Z,97522.09
2018-08-19T03:30:01.666Z,97522.08
2018-08-19T03:35:07.289Z,97525.61
2018-08-19T03:40:01.948Z,97517.73
2018-08-19T03:45:03.600Z,97523.36
2018-08-19T03:49:58.303Z,97522.73
2018-08-19T03:54:52.947Z,97521.78
2018-08-19T03:59:47.908Z,97523.51
2018-08-19T04:04:42.583Z,97526.64
2018-08-19T04:09:37.209Z,97535.55
2018-08-19T04:14:31.932Z,97542.16
2018-08-19T04:19:27.360Z,97542.46
2018-08-19T04:24:22.032Z,97543.42
2018-08-19T04:29:22.724Z,97544.05
2018-08-19T04:34:17.319Z,97544.05
2018-08-19T04:39:11.973Z,97547.17
2018-08-19T04:44:06.612Z,97547.04
2018-08-19T04:49:01.215Z,97551.94
2018-08-19T04:53:55.818Z,97555.47
2018-08-19T04:58:50.386Z,97561.91
2018-08-19T05:03:46.267Z,97562.02
2018-08-19T05:08:41.068Z,97566.75
2018-08-19T05:13:35.681Z,97567.52
2018-08-19T05:18:30.336Z,97566.56
2018-08-19T05:23:24.951Z,97562.25
2018-08-19T05:28:19.749Z,97563.42
2018-08-19T05:33:14.423Z,97566.11
2018-08-19T05:38:09.137Z,97564.63
2018-08-19T05:43:03.799Z,97568.87
2018-08-19T05:48:09.981Z,97575.22
2018-08-19T05:53:04.751Z,97576.88
2018-08-19T05:57:59.535Z,97578.08
2018-08-19T06:02:59.936Z,97583.59
2018-08-19T06:07:59.795Z,97582.62
2018-08-19T06:12:56.345Z,97580.27
2018-08-19T06:17:51.102Z,97578.64
2018-08-19T06:22:45.863Z,97576.65
2018-08-19T06:27:46.848Z,97576.31
2018-08-19T06:32:41.723Z,97577.12
2018-08-19T06:37:36.569Z,97588.12
2018-08-19T06:42:31.357Z,97581.55
2018-08-19T06:47:26.079Z,97586.52
2018-08-19T06:52:21.077Z,97587.33
2018-08-19T06:57:15.814Z,97590.13
2018-08-19T07:02:10.607Z,97592.19
2018-08-19T07:07:07.144Z,97593.97
2018-08-19T07:12:06.728Z,97593.23
2018-08-19T07:17:01.374Z,97583.31
2018-08-19T07:22:00.215Z,97577.01
2018-08-19T07:26:55.130Z,97578.53
2018-08-19T07:31:49.783Z,97577.44
2018-08-19T07:36:44.385Z,97579.08
2018-08-19T07:41:38.980Z,97578.91
2018-08-19T07:46:33.693Z,97578.88
2018-08-19T07:51:28.307Z,97578.08
2018-08-19T07:56:23.023Z,97578.45
2018-08-19T08:01:17.816Z,97575.03
2018-08-19T08:06:12.473Z,97575.24
2018-08-19T08:11:07.189Z,97572.13
2018-08-19T08:16:02.864Z,97576.17
2018-08-19T08:21:04.560Z,97571.39
2018-08-19T08:25:59.152Z,97568.39
2018-08-19T08:30:53.962Z,97573.17
2018-08-19T08:35:53.759Z,97573.33
2018-08-19T08:40:48.465Z,97573.39
2018-08-19T08:45:43.784Z,97567.42
2018-08-19T08:50:38.637Z,97563.84
2018-08-19T08:55:33.399Z,97562.56
2018-08-19T09:00:28.144Z,97554.85
2018-08-19T09:05:22.778Z,97550.29
2018-08-19T09:10:17.411Z,97546.91
2018-08-19T09:15:12.091Z,97546.90
2018-08-19T09:20:09.246Z,97534.45
2018-08-19T09:25:03.991Z,97534.24
2018-08-19T09:29:58.605Z,97526.35
2018-08-19T09:34:53.432Z,97522.00
2018-08-19T09:39:48.115Z,97513.67
2018-08-19T09:44:43.591Z,97515.72
2018-08-19T09:49:38.388Z,97511.38
2018-08-19T09:54:34.649Z,97503.67
2018-08-19T09:59:29.319Z,97495.64
2018-08-19T10:04:25.177Z,97491.11
2018-08-19T10:09:19.785Z,97488.46
2018-08-19T10:14:14.562Z,97483.41
2018-08-19T10:19:09.292Z,97479.35
2018-08-19T10:24:25.404Z,97484.74
2018-08-19T10:29:20.016Z,97479.30
2018-08-19T10:34:14.592Z,97470.98
2018-08-19T10:39:15.942Z,97470.45
2018-08-19T10:44:10.512Z,97463.39
2018-08-19T10:49:05.104Z,97472.06
2018-08-19T10:53:59.804Z,97462.91
2018-08-19T10:58:59.314Z,97451.19
2018-08-19T11:03:54.023Z,97449.68
2018-08-19T11:08:55.660Z,97444.34
2018-08-19T11:13:50.298Z,97437.91
2018-08-19T11:18:46.944Z,97438.20
2018-08-19T11:23:42.937Z,97429.95
2018-08-19T11:28:44.266Z,97427.45
2018-08-19T11:33:42.793Z,97417.45
2018-08-19T11:38:38.048Z,97417.69
2018-08-19T11:43:39.154Z,97412.72
2018-08-19T11:48:34.600Z,97404.38
2018-08-19T11:53:29.299Z,97403.73
2018-08-19T11:58:37.304Z,97396.16
2018-08-19T12:03:46.198Z,97390.85
2018-08-19T12:08:40.864Z,97380.38
2018-08-19T12:13:35.511Z,97377.99
2018-08-19T12:18:30.142Z,97383.62
2018-08-19T12:23:24.756Z,97376.48
2018-08-19T12:28:19.391Z,97374.73
2018-08-19T12:33:24.540Z,97374.34
2018-08-19T12:38:19.312Z,97366.55
2018-08-19T12:43:13.887Z,97367.28
2018-08-19T12:48:08.567Z,97358.35
2018-08-19T12:53:03.274Z,97351.72
2018-08-19T12:58:03.234Z,97352.98
2018-08-19T13:02:57.983Z,97347.11
2018-08-19T13:07:52.829Z,97342.85
2018-08-19T13:12:53.940Z,97341.50
2018-08-19T13:17:48.580Z,97336.83
2018-08-19T13:22:49.821Z,97324.50
2018-08-19T13:27:44.512Z,97324.94
2018-08-19T13:32:39.982Z,97325.66
2018-08-19T13:37:34.859Z,97322.87
2018-08-19T13:42:29.751Z,97311.13
2018-08-19T13:47:24.714Z,97300.88
2018-08-19T13:52:19.602Z,97299.08
2018-08-19T13:57:14.578Z,97297.95
2018-08-19T14:02:09.388Z,97289.83
2018-08-19T14:07:05.020Z,97278.55
2018-08-19T14:11:59.919Z,97278.67
2018-08-19T14:16:54.961Z,97278.67
2018-08-19T14:21:49.859Z,97270.59
2018-08-19T14:26:44.740Z,97270.19
2018-08-19T14:31:39.512Z,97261.12
2018-08-19T14:36:34.399Z,97264.14
2018-08-19T14:41:29.499Z,97257.65
2018-08-19T14:46:25.206Z,97245.72
2018-08-19T14:51:19.924Z,97244.41
2018-08-19T14:56:17.142Z,97241.83
2018-08-19T15:01:12.055Z,97245.11
2018-08-19T15:06:07.357Z,97235.64
2018-08-19T15:11:05.066Z,97241.93
2018-08-19T15:16:00.046Z,97238.27
2018-08-19T15:20:54.985Z,97232.33
2018-08-19T15:25:49.859Z,97231.64
2018-08-19T15:30:44.925Z,97237.37
2018-08-19T15:35:40.059Z,97235.70
2018-08-19T15:40:41.589Z,97239.25
2018-08-19T15:45:36.577Z,97242.11
2018-08-19T15:50:31.404Z,97232.58
2018-08-19T15:55:26.368Z,97236.78
2018-08-19T16:00:22.988Z,97242.69
2018-08-19T16:05:18.469Z,97244.21
2018-08-19T16:10:15.596Z,97236.63
2018-08-19T16:15:14.577Z,97238.38
2018-08-19T16:20:09.558Z,97232.03
2018-08-19T16:25:04.496Z,97232.03
2018-08-19T16:29:59.364Z,97228.89
2018-08-19T16:34:54.039Z,97222.53
2018-08-19T16:40:03.546Z,97219.77
2018-08-19T16:44:58.226Z,97217.22
2018-08-19T16:49:53.713Z,97213.55
2018-08-19T16:54:57.558Z,97209.36
2018-08-19T16:59:52.466Z,97209.78
2018-08-19T17:04:47.390Z,97206.86
2018-08-19T17:09:42.399Z,97201.59
2018-08-19T17:27:48.980Z,97210.43
2018-08-19T17:32:43.721Z,97219.95
2018-08-19T17:37:38.243Z,97214.65
2018-08-19T17:42:33.840Z,97214.88
2018-08-19T17:47:28.423Z,97214.28
2018-08-19T17:52:23.072Z,97221.40
2018-08-19T17:57:17.767Z,97229.89
2018-08-19T18:02:12.343Z,97235.53
2018-08-19T18:07:11.504Z,97242.42
2018-08-19T18:12:06.235Z,97236.72
2018-08-19T18:17:01.359Z,97243.25
2018-08-19T18:21:56.088Z,97247.09
2018-08-19T18:26:50.822Z,97258.31
2018-08-19T18:31:58.274Z,97258.38
2018-08-19T18:36:52.866Z,97262.14
2018-08-19T18:41:48.276Z,97268.73
2018-08-19T18:46:43.164Z,97277.13
2018-08-19T19:04:45.894Z,97275.03
2018-08-19T19:09:48.760Z,97291.05
2018-08-19T19:14:43.625Z,97292.18
2018-08-19T19:19:45.118Z,97292.83
2018-08-19T19:24:41.119Z,97292.30
2018-08-19T19:29:35.948Z,97298.91
2018-08-19T19:34:33.383Z,97302.54
2018-08-19T19:39:28.271Z,97300.89
2018-08-19T19:44:29.324Z,97304.58
2018-08-19T19:49:24.517Z,97312.16
2018-08-19T19:54:19.323Z,97311.52
2018-08-19T19:59:14.528Z,97306.77
2018-08-19T20:04:09.306Z,97315.79
2018-08-19T20:09:04.267Z,97316.59
2018-08-19T20:14:00.928Z,97312.34
2018-08-19T20:18:55.686Z,97319.06
2018-08-19T20:23:50.346Z,97318.45
2018-08-19T20:28:45.108Z,97321.97
2018-08-19T20:33:39.767Z,97332.50
2018-08-19T20:38:34.384Z,97339.44
2018-08-19T20:43:29.036Z,97334.36
2018-08-19T20:48:23.978Z,97339.91
2018-08-19T20:53:19.239Z,97341.17
2018-08-19T20:58:14.300Z,97349.74
2018-08-19T21:03:09.472Z,97355.41
2018-08-19T21:08:14.867Z,97361.06
2018-08-19T21:13:10.860Z,97371.60
2018-08-19T21:18:06.208Z,97374.00
2018-08-19T21:23:00.862Z,97379.66
2018-08-19T21:27:55.607Z,97378.42
2018-08-19T21:32:50.218Z,97380.88
2018-08-19T21:37:46.779Z,97382.77
2018-08-19T21:42:50.240Z,97383.78
2018-08-19T21:47:44.804Z,97384.58
2018-08-19T21:53:17.712Z,97387.94
2018-08-19T21:58:12.373Z,97385.54
2018-08-19T22:03:16.239Z,97385.23
2018-08-19T22:08:10.937Z,97389.08
2018-08-19T22:13:06.739Z,97387.70
2018-08-19T22:18:02.052Z,97384.16
2018-08-19T22:22:56.997Z,97389.46
2018-08-19T22:27:51.596Z,97388.97
2018-08-19T22:32:46.235Z,97380.83
2018-08-19T22:37:40.902Z,97395.34
2018-08-19T22:42:35.494Z,97394.20
2018-08-19T22:47:30.219Z,97392.09
2018-08-19T22:52:24.928Z,97383.55
2018-08-19T22:57:19.633Z,97381.38
2018-08-19T23:02:15.971Z,97385.72
2018-08-19T23:07:10.576Z,97381.13
2018-08-19T23:12:05.559Z,97368.00
2018-08-19T23:17:00.156Z,97373.67
2018-08-19T23:21:54.730Z,97379.48
2018-08-19T23:26:49.601Z,97374.39
2018-08-19T23:31:44.203Z,97376.05
2018-08-19T23:36:38.808Z,97374.30
2018-08-19T23:41:33.424Z,97382.33
2018-08-19T23:46:28.041Z,97385.86
2018-08-19T23:51:38.036Z,97386.20
2018-08-19T23:56:33.096Z,97384.33
